Time;durP1;ratioP1;P1;durP2;ratioP2;P2;SDS_P1;SDS_P2;PMS_P1;PMS_P2;Temp;Humidity;BMP_temperature;BMP_pressure;BME280_temperature;BME280_humidity;BME280_pressure;Samples;Min_cycle;Max_cycle;Signal;HPM_P1;HPM_P2
2022/07/19 00:00:33;;;;;;;5.03;2.10;;;;;;;20.52;51.46;96666.28;5043024;28;20040;-76
2022/07/19 00:02:59;;;;;;;6.60;2.70;;;;;;;20.57;51.78;96668.34;5071888;28;20031;-75
2022/07/19 00:05:25;;;;;;;3.55;1.90;;;;;;;20.56;51.49;96666.69;5041112;28;20760;-75
2022/07/19 00:07:51;;;;;;;4.10;1.90;;;;;;;20.59;51.28;96661.75;5063337;28;20055;-77
2022/07/19 00:10:19;;;;;;;3.72;2.20;;;;;;;20.65;50.85;96665.41;5061750;28;20085;-76
2022/07/19 00:12:45;;;;;;;5.45;2.40;;;;;;;20.58;50.84;96656.59;5043264;28;20388;-77
2022/07/19 00:15:14;;;;;;;7.70;2.75;;;;;;;20.58;51.07;96661.94;5036466;28;20116;-76
2022/07/19 00:17:42;;;;;;;5.20;2.10;;;;;;;20.56;51.07;96656.84;5046204;28;20119;-74
2022/07/19 00:20:09;;;;;;;4.85;2.38;;;;;;;20.58;50.73;96653.94;5049758;28;20216;-76
2022/07/19 00:22:35;;;;;;;5.57;2.30;;;;;;;20.59;50.91;96652.91;5038931;28;20389;-77
2022/07/19 00:25:00;;;;;;;6.18;2.08;;;;;;;20.55;51.07;96654.34;5073402;28;20028;-75
2022/07/19 00:27:26;;;;;;;5.93;2.05;;;;;;;20.60;50.80;96650.03;5058969;28;20111;-77
2022/07/19 00:29:52;;;;;;;7.75;2.47;;;;;;;20.59;50.98;96653.75;5061694;28;20138;-78
2022/07/19 00:32:17;;;;;;;7.70;1.83;;;;;;;20.52;51.21;96644.91;5040891;28;20036;-77
2022/07/19 00:34:43;;;;;;;6.07;1.90;;;;;;;20.57;50.74;96658.47;5051687;28;20029;-77
2022/07/19 00:37:08;;;;;;;6.38;2.22;;;;;;;20.69;49.95;96650.59;5047613;28;20043;-78
2022/07/19 00:39:34;;;;;;;3.70;1.90;;;;;;;20.77;49.83;96655.72;5038039;28;20040;-78
2022/07/19 00:42:00;;;;;;;4.85;1.75;;;;;;;20.81;49.38;96656.91;5060374;28;20136;-77
2022/07/19 00:44:25;;;;;;;4.03;1.90;;;;;;;20.82;49.53;96661.22;5045060;28;20485;-75
2022/07/19 00:46:51;;;;;;;7.75;1.85;;;;;;;20.77;49.65;96657.56;5047238;28;20025;-77
2022/07/19 00:49:17;;;;;;;4.25;2.25;;;;;;;20.70;50.13;96658.41;5048108;28;20472;-77
2022/07/19 00:51:45;;;;;;;6.18;2.35;;;;;;;20.65;50.66;96660.06;5071313;28;20032;-77
2022/07/19 00:54:12;;;;;;;4.30;2.05;;;;;;;20.68;50.46;96659.66;5073091;28;20047;-77
2022/07/19 00:56:38;;;;;;;6.05;2.22;;;;;;;20.62;51.20;96657.81;5050503;28;20055;-78
2022/07/19 00:59:05;;;;;;;5.88;2.38;;;;;;;20.56;51.32;96656.84;5048600;28;20029;-77
2022/07/19 01:01:31;;;;;;;5.57;2.10;;;;;;;20.56;51.48;96661.38;5066420;28;20040;-77
2022/07/19 01:03:58;;;;;;;4.28;2.00;;;;;;;20.48;51.85;96655.16;5048388;28;20079;-77
2022/07/19 01:06:24;;;;;;;4.25;1.90;;;;;;;20.41;52.35;96654.38;5032872;28;20020;-77
2022/07/19 01:08:50;;;;;;;8.48;2.22;;;;;;;20.32;53.03;96661.00;5048923;28;20035;-77
2022/07/19 01:11:16;;;;;;;3.63;2.08;;;;;;;20.34;52.79;96658.09;5068606;28;20405;-77
2022/07/19 01:13:42;;;;;;;5.30;2.30;;;;;;;20.30;53.32;96659.56;5054272;28;20077;-77
2022/07/19 01:16:08;;;;;;;5.40;2.00;;;;;;;20.24;53.74;96661.22;5059103;28;20466;-77
2022/07/19 01:18:33;;;;;;;5.68;2.47;;;;;;;20.23;53.89;96656.91;5050594;28;20059;-77
2022/07/19 01:21:03;;;;;;;6.70;1.90;;;;;;;20.15;54.54;96662.47;5034750;28;20053;-77
2022/07/19 01:23:29;;;;;;;6.38;2.60;;;;;;;20.17;54.18;96660.41;5071702;28;20034;-77
2022/07/19 01:25:55;;;;;;;4.45;2.50;;;;;;;20.06;55.23;96658.41;5052993;28;20040;-77
2022/07/19 01:28:21;;;;;;;4.32;2.67;;;;;;;19.99;55.64;96656.56;5082921;28;20076;-77
2022/07/19 01:30:46;;;;;;;6.78;2.95;;;;;;;19.96;55.80;96640.13;5058867;28;20035;-76
2022/07/19 01:33:12;;;;;;;5.40;1.83;;;;;;;19.93;56.20;96644.03;5057812;28;20028;-78
2022/07/19 01:35:38;;;;;;;5.40;2.08;;;;;;;19.85;56.81;96641.59;5070761;28;20059;-76
2022/07/19 01:38:03;;;;;;;4.00;2.10;;;;;;;19.85;56.80;96648.75;5062013;28;20117;-77
2022/07/19 01:40:29;;;;;;;6.93;2.50;;;;;;;19.91;56.87;96647.94;5047139;28;20397;-77
2022/07/19 01:42:55;;;;;;;4.85;2.30;;;;;;;19.95;56.39;96644.66;5049902;28;20028;-77
2022/07/19 01:45:21;;;;;;;5.65;2.45;;;;;;;20.00;55.97;96647.50;5051515;28;20032;-77
2022/07/19 01:47:47;;;;;;;3.35;1.90;;;;;;;20.04;55.88;96641.75;5063782;28;20473;-77
2022/07/19 01:50:16;;;;;;;7.72;2.30;;;;;;;20.00;56.20;96652.84;5070958;28;20111;-76
2022/07/19 01:52:42;;;;;;;4.88;2.17;;;;;;;19.97;56.18;96647.91;5054937;28;20052;-77
2022/07/19 01:55:08;;;;;;;3.80;1.70;;;;;;;19.93;56.47;96649.38;5056648;28;20386;-77
2022/07/19 01:57:34;;;;;;;6.13;2.10;;;;;;;19.89;57.02;96650.00;5029765;28;20060;-76
2022/07/19 02:00:00;;;;;;;4.47;2.42;;;;;;;19.87;57.22;96642.19;5060509;28;20042;-76
2022/07/19 02:02:25;;;;;;;7.80;2.30;;;;;;;19.79;57.88;96639.75;5080690;28;20031;-78
2022/07/19 02:04:51;;;;;;;6.13;2.03;;;;;;;19.66;58.85;96629.09;5074717;28;20642;-78
2022/07/19 02:07:17;;;;;;;6.10;2.08;;;;;;;19.65;59.11;96636.28;5071157;28;20051;-77
2022/07/19 02:09:43;;;;;;;5.18;1.92;;;;;;;19.60;60.22;96630.69;5036740;28;20113;-77
2022/07/19 02:12:08;;;;;;;6.18;2.15;;;;;;;19.59;60.08;96633.56;5071992;28;20028;-77
2022/07/19 02:14:34;;;;;;;6.25;1.98;;;;;;;19.58;60.20;96631.91;5048001;28;20043;-76
2022/07/19 02:17:00;;;;;;;3.25;1.98;;;;;;;19.52;60.40;96634.41;5056077;28;20032;-77
2022/07/19 02:19:25;;;;;;;4.32;2.13;;;;;;;19.54;60.33;96620.84;5051939;28;20028;-77
2022/07/19 02:21:51;;;;;;;3.85;1.77;;;;;;;19.53;60.26;96624.53;5058859;28;20036;-76
2022/07/19 02:24:17;;;;;;;8.88;2.45;;;;;;;19.54;60.17;96620.84;5050298;28;20029;-77
2022/07/19 02:26:43;;;;;;;7.70;2.03;;;;;;;19.48;60.61;96627.84;5055073;28;20105;-76
2022/07/19 02:29:09;;;;;;;4.32;2.20;;;;;;;19.39;61.41;96629.06;5069201;28;20037;-76
2022/07/19 02:31:35;;;;;;;4.45;2.20;;;;;;;19.29;62.44;96618.78;5065704;28;20071;-77
2022/07/19 02:34:00;;;;;;;5.38;2.35;;;;;;;19.29;62.52;96617.97;5050102;28;20028;-77
2022/07/19 02:36:26;;;;;;;6.25;2.50;;;;;;;19.27;62.54;96622.69;5057870;28;20032;-77
2022/07/19 02:38:52;;;;;;;4.90;2.17;;;;;;;19.24;63.13;96625.75;5047846;28;20033;-77
2022/07/19 02:41:17;;;;;;;4.03;1.80;;;;;;;19.20;62.98;96625.34;5079863;28;20698;-77
2022/07/19 02:43:44;;;;;;;3.83;1.92;;;;;;;19.20;63.28;96619.19;5058850;28;20042;-77
2022/07/19 02:46:10;;;;;;;5.85;2.50;;;;;;;19.20;63.11;96619.19;5071161;28;20025;-76
2022/07/19 02:48:35;;;;;;;3.45;2.13;;;;;;;19.13;63.16;96621.84;5060713;28;20087;-77
2022/07/19 02:51:01;;;;;;;4.88;2.50;;;;;;;19.09;63.61;96623.28;5057873;28;20036;-77
2022/07/19 02:53:27;;;;;;;5.82;1.98;;;;;;;19.07;64.22;96623.47;5046362;28;20110;-76
2022/07/19 02:55:54;;;;;;;13.18;2.45;;;;;;;19.04;64.23;96623.88;5045707;28;20379;-76
2022/07/19 02:58:19;;;;;;;4.90;2.35;;;;;;;19.02;64.62;96620.63;5055374;28;20028;-76
2022/07/19 03:00:45;;;;;;;3.92;2.00;;;;;;;18.99;64.67;96623.69;5067057;28;20035;-76
2022/07/19 03:05:55;;;;;;;4.40;2.08;;;;;;;18.97;65.56;96628.38;5061215;28;20036;-76
2022/07/19 03:08:22;;;;;;;9.38;2.70;;;;;;;18.91;67.42;96626.53;5037477;28;20060;-76
2022/07/19 03:10:47;;;;;;;4.75;2.28;;;;;;;18.76;67.27;96625.88;5046455;28;20036;-76
2022/07/19 03:13:13;;;;;;;6.32;2.15;;;;;;;18.76;67.45;96628.56;5045926;28;20131;-76
2022/07/19 03:15:39;;;;;;;4.15;1.98;;;;;;;18.76;67.08;96636.56;5052204;28;20388;-75
2022/07/19 03:18:04;;;;;;;5.15;2.30;;;;;;;18.75;67.54;96629.59;5047367;28;20035;-77
2022/07/19 03:20:30;;;;;;;5.60;2.22;;;;;;;18.75;67.95;96624.25;5070902;28;20516;-76
2022/07/19 03:22:56;;;;;;;4.22;1.77;;;;;;;18.70;66.57;96630.13;5057728;28;20054;-77
2022/07/19 03:25:22;;;;;;;5.38;1.90;;;;;;;18.64;66.81;96633.59;5052472;28;20025;-76
2022/07/19 03:27:53;;;;;;;6.00;2.25;;;;;;;18.61;67.01;96624.19;5048260;28;20024;-76
2022/07/19 03:30:19;;;;;;;6.95;1.98;;;;;;;18.47;67.77;96622.47;5033357;28;20370;-76
2022/07/19 03:32:44;;;;;;;5.22;2.15;;;;;;;18.42;68.02;96634.75;5049524;28;20111;-76
2022/07/19 03:35:10;;;;;;;3.33;1.95;;;;;;;18.35;68.64;96626.75;5041133;28;20028;-76
2022/07/19 03:37:36;;;;;;;3.72;2.17;;;;;;;18.36;68.96;96634.53;5076547;28;20040;-75
2022/07/19 03:40:02;;;;;;;4.78;2.20;;;;;;;18.38;68.84;96626.34;5043386;28;20094;-76
2022/07/19 03:42:28;;;;;;;4.55;2.28;;;;;;;18.41;69.01;96625.97;5060183;28;20044;-75
2022/07/19 03:44:53;;;;;;;4.38;2.15;;;;;;;18.39;68.89;96625.31;5051027;28;20112;-77
2022/07/19 03:47:19;;;;;;;3.92;2.00;;;;;;;18.32;70.24;96633.28;5048671;28;20039;-74
2022/07/19 03:49:45;;;;;;;5.15;2.17;;;;;;;18.35;70.03;96624.91;5030959;28;20069;-76
2022/07/19 03:52:11;;;;;;;4.82;1.98;;;;;;;18.19;71.44;96627.09;5077700;28;20035;-77
2022/07/19 03:54:37;;;;;;;5.30;2.58;;;;;;;18.17;71.40;96629.09;5059094;28;20064;-74
2022/07/19 03:57:03;;;;;;;4.95;2.72;;;;;;;18.11;71.50;96631.56;5070953;28;20068;-76
2022/07/19 03:59:29;;;;;;;4.15;2.05;;;;;;;18.10;71.81;96629.88;5068092;28;20036;-76
2022/07/19 04:01:54;;;;;;;5.15;2.30;;;;;;;18.06;72.20;96633.97;5071640;28;20050;-74
2022/07/19 04:04:20;;;;;;;5.95;2.38;;;;;;;18.10;71.99;96634.41;5071188;28;20035;-76
2022/07/19 04:06:46;;;;;;;5.35;3.05;;;;;;;18.05;73.30;96628.84;5051810;28;20041;-76
2022/07/19 04:09:12;;;;;;;6.13;2.38;;;;;;;18.04;74.13;96635.16;5064483;28;20109;-76
2022/07/19 04:11:38;;;;;;;7.40;3.05;;;;;;;17.83;75.86;96636.06;5057627;28;20802;-76
2022/07/19 04:14:04;;;;;;;7.03;2.20;;;;;;;17.91;75.52;96630.63;5074849;28;20025;-77
2022/07/19 04:16:30;;;;;;;4.13;1.98;;;;;;;17.83;76.29;96633.41;5048682;28;20037;-76
2022/07/19 04:18:56;;;;;;;6.55;2.40;;;;;;;17.86;76.82;96635.69;5038807;28;20028;-78
2022/07/19 04:21:21;;;;;;;4.80;2.30;;;;;;;17.96;75.80;96636.16;5050597;28;20024;-77
2022/07/19 04:23:47;;;;;;;6.40;2.70;;;;;;;18.00;75.98;96632.09;5044659;28;20040;-78
2022/07/19 04:26:13;;;;;;;4.78;2.00;;;;;;;17.98;75.96;96641.31;5046480;28;20051;-78
2022/07/19 04:28:39;;;;;;;5.75;2.30;;;;;;;18.08;75.74;96634.59;5066648;28;20040;-79
2022/07/19 04:31:04;;;;;;;7.32;2.60;;;;;;;18.20;75.64;96634.84;5077733;28;20024;-79
2022/07/19 04:33:30;;;;;;;5.57;2.60;;;;;;;18.22;75.22;96637.34;5060605;28;20044;-77
2022/07/19 04:35:56;;;;;;;5.95;2.17;;;;;;;18.18;75.34;96638.75;5065760;28;20695;-77
2022/07/19 04:38:22;;;;;;;6.32;1.88;;;;;;;18.14;75.79;96636.47;5034527;28;20089;-79
2022/07/19 04:40:48;;;;;;;4.32;2.38;;;;;;;18.28;75.36;96633.88;5062426;28;20028;-79
2022/07/19 04:43:15;;;;;;;3.55;2.20;;;;;;;18.30;75.33;96640.63;5046654;28;20094;-77
2022/07/19 04:45:41;;;;;;;6.53;2.20;;;;;;;18.43;74.50;96628.41;5031779;28;20025;-79
2022/07/19 04:48:08;;;;;;;4.25;2.25;;;;;;;18.48;74.42;96632.13;5080586;28;20028;-77
2022/07/19 04:50:33;;;;;;;4.60;2.15;;;;;;;18.39;75.15;96633.31;5051658;28;20021;-77
2022/07/19 04:52:59;;;;;;;4.70;2.17;;;;;;;18.48;75.96;96632.13;5068727;28;20574;-76
2022/07/19 04:55:25;;;;;;;6.35;2.28;;;;;;;18.53;76.49;96624.34;5059897;28;20066;-78
2022/07/19 04:57:50;;;;;;;5.57;2.90;;;;;;;18.66;76.19;96634.22;5058420;28;20029;-78
2022/07/19 05:00:16;;;;;;;4.25;2.33;;;;;;;18.53;76.60;96635.00;5044714;28;20036;-78
2022/07/19 05:02:42;;;;;;;4.75;2.28;;;;;;;18.66;76.90;96634.22;5047551;28;20707;-78
2022/07/19 05:05:08;;;;;;;3.78;2.17;;;;;;;18.84;75.44;96631.03;5079466;28;20040;-79
2022/07/19 05:07:34;;;;;;;5.47;2.45;;;;;;;18.84;75.88;96631.03;5065885;28;20036;-79
2022/07/19 05:09:59;;;;;;;5.95;2.67;;;;;;;18.90;76.10;96630.22;5058036;28;20098;-77
2022/07/19 05:12:25;;;;;;;7.10;2.42;;;;;;;19.01;76.07;96631.47;5058832;28;20035;-78
2022/07/19 05:14:50;;;;;;;5.97;2.70;;;;;;;19.19;73.69;96622.91;5054255;28;20028;-79
2022/07/19 05:17:16;;;;;;;6.55;2.50;;;;;;;19.28;74.39;96621.66;5046465;28;20040;-78
2022/07/19 05:19:42;;;;;;;7.95;2.67;;;;;;;19.53;73.42;96614.69;5073763;28;20123;-77
2022/07/19 05:22:08;;;;;;;6.32;3.00;;;;;;;19.64;73.55;96625.78;5055161;28;20036;-79
2022/07/19 05:24:33;;;;;;;5.20;2.55;;;;;;;19.64;72.03;96625.78;5043374;28;20055;-79
2022/07/19 05:26:59;;;;;;;8.23;2.80;;;;;;;19.86;71.27;96634.41;5050289;28;20033;-79
2022/07/19 05:29:25;;;;;;;4.20;2.22;;;;;;;20.11;69.56;96631.88;5075596;28;20028;-79
2022/07/19 05:31:50;;;;;;;4.50;2.28;;;;;;;20.25;68.49;96630.78;5059811;28;20041;-78
2022/07/19 05:34:16;;;;;;;7.30;2.05;;;;;;;20.61;69.28;96627.59;5051320;28;20028;-76
2022/07/19 05:36:42;;;;;;;3.15;1.90;;;;;;;20.87;67.19;96626.66;5032370;28;20037;-78
2022/07/19 05:39:07;;;;;;;3.53;2.00;;;;;;;20.94;67.38;96627.44;5053771;28;20044;-77
2022/07/19 05:41:33;;;;;;;4.18;2.33;;;;;;;21.25;66.26;96627.66;5063904;28;20032;-77
2022/07/19 05:43:59;;;;;;;4.53;1.92;;;;;;;21.47;63.87;96625.47;5052485;28;20091;-77
2022/07/19 05:46:25;;;;;;;4.53;2.20;;;;;;;21.55;62.77;96625.19;5043699;28;21208;-76
2022/07/19 05:48:50;;;;;;;6.30;2.08;;;;;;;21.74;61.47;96624.19;5069705;28;20068;-77
2022/07/19 05:51:16;;;;;;;6.35;2.30;;;;;;;21.73;61.36;96625.25;5055025;28;20039;-77
2022/07/19 05:53:42;;;;;;;4.35;2.15;;;;;;;22.30;60.13;96622.38;5057729;28;20071;-77
2022/07/19 05:56:09;;;;;;;6.85;2.45;;;;;;;22.35;58.98;96618.00;5034534;28;20035;-76
2022/07/19 05:58:35;;;;;;;5.90;4.07;;;;;;;22.41;57.55;96624.34;5056789;28;20568;-76
2022/07/19 06:01:18;;;;;;;6.63;2.42;;;;;;;22.83;55.22;96622.53;5042324;28;20108;-77
2022/07/19 06:03:51;;;;;;;4.40;2.20;;;;;;;22.94;53.48;96623.69;5058227;28;20039;-75
2022/07/19 06:06:18;;;;;;;4.70;2.00;;;;;;;22.96;53.86;96628.81;5032169;28;20064;-76
2022/07/19 06:08:44;;;;;;;5.32;2.05;;;;;;;23.25;53.14;96617.25;5061938;28;20021;-77
2022/07/19 06:11:10;;;;;;;4.35;1.90;;;;;;;23.16;53.76;96626.66;5047711;28;20039;-77
2022/07/19 06:13:36;;;;;;;4.03;1.83;;;;;;;23.62;52.59;96627.81;5050068;28;20044;-77
2022/07/19 06:16:03;;;;;;;4.47;1.92;;;;;;;24.11;52.41;96615.00;5047935;28;20051;-75
2022/07/19 06:18:34;;;;;;;6.13;2.08;;;;;;;24.32;53.41;96620.81;5064220;28;20501;-77
2022/07/19 06:21:02;;;;;;;3.65;2.00;;;;;;;24.35;52.19;96621.13;5067440;28;20103;-77
2022/07/19 06:23:28;;;;;;;3.30;1.85;;;;;;;24.88;51.76;96625.47;5064063;28;20166;-76
2022/07/19 06:25:54;;;;;;;6.10;1.80;;;;;;;25.36;48.03;96616.09;5059642;28;20039;-79
2022/07/19 06:28:19;;;;;;;5.70;2.33;;;;;;;25.34;48.02;96622.78;5051846;28;20028;-77
2022/07/19 06:30:45;;;;;;;4.38;2.00;;;;;;;24.85;47.46;96619.75;5052953;28;20501;-77
2022/07/19 06:33:10;;;;;;;5.82;2.40;;;;;;;25.39;47.16;96615.63;5038124;28;20386;-76
2022/07/19 06:35:36;;;;;;;5.53;1.80;;;;;;;25.31;47.98;96616.00;5040651;28;20032;-78
2022/07/19 06:38:02;;;;;;;4.70;2.28;;;;;;;25.69;44.69;96625.25;5059653;28;20441;-76
2022/07/19 06:40:28;;;;;;;4.78;2.08;;;;;;;25.78;45.73;96618.38;5067544;28;20042;-74
2022/07/19 06:42:54;;;;;;;3.03;1.63;;;;;;;26.41;44.90;96619.00;5050545;28;20084;-77
2022/07/19 06:45:20;;;;;;;5.38;2.17;;;;;;;26.65;42.93;96611.50;5039849;28;20147;-77
2022/07/19 06:47:46;;;;;;;6.13;2.20;;;;;;;26.55;43.25;96617.59;5028690;28;20059;-75
2022/07/19 06:50:12;;;;;;;4.80;1.98;;;;;;;27.53;42.00;96602.38;5046403;28;20028;-77
2022/07/19 06:52:37;;;;;;;3.80;2.33;;;;;;;27.74;41.43;96606.88;5063957;28;20028;-76
2022/07/19 06:55:04;;;;;;;4.28;2.20;;;;;;;28.12;40.70;96607.69;5049960;28;20106;-78
2022/07/19 06:57:29;;;;;;;6.38;3.60;;;;;;;28.41;40.40;96600.03;5071802;28;20024;-76
2022/07/19 06:59:55;;;;;;;5.07;2.20;;;;;;;28.41;39.92;96598.13;5034641;28;20024;-75
2022/07/19 07:02:20;;;;;;;4.47;1.67;;;;;;;27.74;36.40;96601.50;5066924;28;20039;-78
2022/07/19 07:04:46;;;;;;;3.28;1.80;;;;;;;27.90;37.09;96603.25;5081394;28;20028;-77
2022/07/19 07:07:12;;;;;;;3.90;2.00;;;;;;;28.46;35.82;96601.94;5048673;28;20458;-76
2022/07/19 07:09:38;;;;;;;2.35;1.52;;;;;;;28.38;34.01;96598.63;5071686;28;20833;-77
2022/07/19 07:12:04;;;;;;;3.78;1.77;;;;;;;28.38;34.01;96606.75;5072204;28;20067;-77
2022/07/19 07:14:29;;;;;;;3.88;1.88;;;;;;;29.01;33.56;96603.25;5068787;28;20127;-75
2022/07/19 07:16:55;;;;;;;3.60;1.52;;;;;;;29.11;32.55;96598.66;5047825;28;20054;-77
2022/07/19 07:19:21;;;;;;;4.13;1.75;;;;;;;29.08;32.78;96598.38;5036015;28;20055;-78
2022/07/19 07:21:48;;;;;;;3.42;1.60;;;;;;;29.04;31.99;96605.38;5055732;28;20028;-77
2022/07/19 07:24:14;;;;;;;4.25;1.83;;;;;;;28.96;32.45;96611.31;5052280;28;20036;-78
2022/07/19 07:26:40;;;;;;;3.05;1.90;;;;;;;29.00;32.41;96602.41;5056140;28;20448;-78
2022/07/19 07:29:05;;;;;;;2.50;1.63;;;;;;;30.09;30.63;96596.72;5036468;28;20074;-78
2022/07/19 07:31:31;;;;;;;6.97;2.00;;;;;;;30.50;29.98;96591.19;5053877;28;20063;-77
2022/07/19 07:33:57;;;;;;;4.88;1.67;;;;;;;29.83;30.86;96599.47;5059505;28;20162;-78
2022/07/19 07:36:22;;;;;;;3.55;1.80;;;;;;;29.73;28.99;96588.66;5068340;28;20028;-78
2022/07/19 07:38:48;;;;;;;2.38;1.63;;;;;;;29.50;28.65;96595.41;5054681;28;20041;-79
2022/07/19 07:41:14;;;;;;;3.78;1.75;;;;;;;29.60;28.76;96590.00;5055505;28;20032;-78
2022/07/19 07:43:39;;;;;;;4.43;1.60;;;;;;;29.74;28.30;96584.84;5043455;28;20037;-77
2022/07/19 07:46:05;;;;;;;3.17;1.35;;;;;;;30.16;27.15;96575.53;5060373;28;20032;-76
2022/07/19 07:48:31;;;;;;;3.65;1.65;;;;;;;30.00;27.25;96587.53;5046328;28;20052;-78
2022/07/19 07:50:56;;;;;;;5.32;1.67;;;;;;;29.41;27.46;96582.66;5062480;28;20100;-79
2022/07/19 07:53:22;;;;;;;5.57;1.80;;;;;;;29.43;27.99;96589.44;5046880;28;20080;-78
2022/07/19 07:55:48;;;;;;;4.32;1.80;;;;;;;30.01;26.74;96581.00;5062642;28;20043;-77
2022/07/19 07:58:13;;;;;;;3.35;1.70;;;;;;;30.01;27.24;96589.13;5052471;28;20021;-76
2022/07/19 08:00:40;;;;;;;3.20;1.55;;;;;;;29.53;27.31;96592.16;5058839;28;20036;-78
2022/07/19 08:03:06;;;;;;;4.43;1.90;;;;;;;30.72;27.06;96582.69;5051226;28;20695;-79
2022/07/19 08:05:32;;;;;;;3.08;1.30;;;;;;;30.17;25.65;96585.31;5052589;28;20035;-76
2022/07/19 08:07:59;;;;;;;3.13;1.70;;;;;;;30.36;25.53;96584.75;5055874;28;20059;-78
2022/07/19 08:10:27;;;;;;;2.72;1.50;;;;;;;30.05;25.88;96590.25;5054487;28;20496;-77
2022/07/19 08:12:53;;;;;;;3.20;1.67;;;;;;;30.56;25.92;96583.84;5077462;28;20107;-79
2022/07/19 08:15:20;;;;;;;3.38;1.50;;;;;;;30.98;25.90;96578.72;5063573;28;20091;-77
2022/07/19 08:17:46;;;;;;;2.40;1.20;;;;;;;30.54;24.98;96576.78;5073206;28;20378;-78
2022/07/19 08:20:12;;;;;;;2.58;1.60;;;;;;;30.60;24.98;96572.16;5055728;28;20174;-78
2022/07/19 08:22:38;;;;;;;5.20;1.70;;;;;;;30.71;25.36;96570.19;5054806;28;20044;-78
2022/07/19 08:25:04;;;;;;;4.05;1.58;;;;;;;31.33;24.87;96570.66;5061679;28;20120;-78
2022/07/19 08:27:30;;;;;;;4.18;1.92;;;;;;;31.49;23.93;96569.44;5061684;28;20043;-81
2022/07/19 08:29:56;;;;;;;3.15;1.70;;;;;;;31.16;24.70;96566.41;5035130;28;20037;-81
2022/07/19 08:32:22;;;;;;;3.75;1.65;;;;;;;31.38;24.26;96573.34;5083766;28;20032;-79
2022/07/19 08:34:47;;;;;;;2.95;1.77;;;;;;;31.52;24.25;96562.59;5042847;28;20421;-82
2022/07/19 08:37:13;;;;;;;2.63;1.52;;;;;;;31.41;24.72;96565.41;5037188;28;20118;-81
2022/07/19 08:39:39;;;;;;;4.30;1.92;;;;;;;31.65;24.27;96561.94;5032766;28;20124;-81
2022/07/19 08:42:05;;;;;;;4.38;1.77;;;;;;;31.22;24.16;96562.56;5080166;28;20481;-81
2022/07/19 08:44:35;;;;;;;2.65;1.58;;;;;;;31.16;23.96;96560.97;5038685;28;20025;-81
2022/07/19 08:47:01;;;;;;;2.92;1.80;;;;;;;30.85;24.88;96571.25;5054406;28;20064;-80
2022/07/19 08:49:27;;;;;;;6.55;2.00;;;;;;;30.84;24.21;96558.72;5056230;28;20378;-80
2022/07/19 08:51:53;;;;;;;5.28;2.40;;;;;;;31.11;23.78;96571.88;5051562;28;20031;-79
2022/07/19 08:54:19;;;;;;;4.35;2.40;;;;;;;30.86;24.19;96566.63;5067626;28;20462;-79
2022/07/19 08:59:30;;;;;;;4.25;2.08;;;;;;;30.52;24.03;96568.13;5060918;28;20477;-81
2022/07/19 09:01:56;;;;;;;4.32;2.20;;;;;;;31.12;24.01;96569.97;5043856;28;20037;-80
2022/07/19 09:04:25;;;;;;;4.75;1.85;;;;;;;31.24;23.95;96568.50;5062366;28;20037;-80
2022/07/19 09:06:53;;;;;;;5.60;2.17;;;;;;;30.96;24.42;96556.50;5066731;28;20017;-77
2022/07/19 09:09:25;;;;;;;5.05;2.05;;;;;;;31.26;23.97;96560.09;5059670;28;20070;-77
2022/07/19 09:11:53;;;;;;;5.63;1.90;;;;;;;31.31;23.90;96573.63;5060419;28;20029;-76
2022/07/19 09:14:21;;;;;;;5.22;2.17;;;;;;;31.84;23.96;96559.31;5085795;28;20034;-80
2022/07/19 09:16:54;;;;;;;4.78;2.25;;;;;;;32.25;23.27;96564.34;5050334;28;20101;-81
2022/07/19 09:19:21;;;;;;;3.95;1.90;;;;;;;31.41;23.67;96568.13;5049839;28;20035;-79
2022/07/19 09:22:08;;;;;;;4.40;1.77;;;;;;;31.72;23.50;96562.41;5060305;28;20024;-80
2022/07/19 09:24:37;;;;;;;2.60;1.85;;;;;;;32.23;23.42;96558.38;5059318;28;20032;-78
2022/07/19 09:27:08;;;;;;;4.05;1.88;;;;;;;32.42;22.91;96567.44;5060822;28;20020;-80
2022/07/19 09:29:41;;;;;;;4.03;2.28;;;;;;;32.23;24.03;96561.09;5054262;28;20104;-80
2022/07/19 09:32:12;;;;;;;3.83;2.15;;;;;;;31.78;23.69;96569.44;5055969;28;20040;-79
2022/07/19 09:34:43;;;;;;;4.75;2.15;;;;;;;32.72;23.45;96570.88;5060894;28;20032;-78
2022/07/19 09:37:11;;;;;;;7.35;2.05;;;;;;;32.93;22.83;96569.50;5030529;28;20531;-81
2022/07/19 09:39:39;;;;;;;3.45;2.00;;;;;;;32.18;23.14;96564.69;5057433;28;20070;-80
2022/07/19 09:42:05;;;;;;;4.90;2.47;;;;;;;32.57;22.98;96578.16;5041433;28;20033;-80
2022/07/19 09:44:30;;;;;;;4.90;2.40;;;;;;;31.97;23.38;96563.31;5044290;28;20059;-80
2022/07/19 09:46:56;;;;;;;4.28;2.47;;;;;;;33.00;22.74;96569.97;5053288;28;20493;-79
2022/07/19 09:49:22;;;;;;;4.25;2.20;;;;;;;33.22;21.87;96565.81;5045802;28;20020;-79
2022/07/19 09:51:53;;;;;;;4.32;2.35;;;;;;;33.56;21.91;96571.81;5040075;28;20047;-81
2022/07/19 09:54:22;;;;;;;7.93;2.42;;;;;;;33.19;22.72;96563.69;5071323;28;20055;-80
2022/07/19 09:56:50;;;;;;;4.00;2.40;;;;;;;33.74;21.80;96574.81;5075035;28;20025;-79
2022/07/19 09:59:16;;;;;;;5.00;1.90;;;;;;;33.29;22.04;96561.59;5087141;28;20027;-79
2022/07/19 10:01:43;;;;;;;3.92;2.17;;;;;;;33.59;22.10;96558.69;5062747;28;20028;-79
2022/07/19 10:04:11;;;;;;;3.97;2.05;;;;;;;33.21;22.21;96553.31;5086173;28;20032;-81
2022/07/19 10:06:38;;;;;;;8.80;2.65;;;;;;;33.66;21.90;96556.38;5052362;28;20040;-83
2022/07/19 10:09:06;;;;;;;3.72;1.90;;;;;;;34.14;21.50;96558.78;5035588;28;20168;-82
2022/07/19 10:11:33;;;;;;;5.80;2.40;;;;;;;33.47;21.92;96551.78;5040266;28;20048;-82
2022/07/19 10:14:00;;;;;;;6.80;2.75;;;;;;;34.08;21.09;96554.56;5035364;28;20031;-83
2022/07/19 10:16:32;;;;;;;5.88;2.50;;;;;;;33.39;21.90;96560.63;5047090;28;20036;-83
2022/07/19 10:19:10;;;;;;;4.45;2.45;;;;;;;33.11;22.34;96556.19;5038712;28;20040;-82
2022/07/19 10:21:36;;;;;;;4.75;2.25;;;;;;;33.56;22.42;96554.66;5066009;28;20051;-80
2022/07/19 10:24:02;;;;;;;5.85;2.60;;;;;;;33.55;21.99;96553.03;5042955;28;20043;-81
2022/07/19 10:26:37;;;;;;;5.47;2.42;;;;;;;33.81;22.00;96545.22;5041518;28;20504;-83
2022/07/19 10:29:15;;;;;;;5.03;2.60;;;;;;;33.63;22.13;96541.44;5059801;28;20042;-79
2022/07/19 10:31:43;;;;;;;5.25;2.60;;;;;;;33.27;22.47;96547.47;5053012;28;20033;-82
2022/07/19 10:34:11;;;;;;;5.25;2.50;;;;;;;33.41;22.59;96544.78;5057449;28;20033;-81
2022/07/19 10:36:46;;;;;;;8.05;2.60;;;;;;;34.56;21.93;96541.31;5050610;28;20162;-82
2022/07/19 10:39:21;;;;;;;4.03;2.25;;;;;;;34.44;21.64;96541.81;5032468;28;20124;-82
2022/07/19 10:42:08;;;;;;;5.40;2.30;;;;;;;34.79;21.65;96531.25;5048972;28;20177;-80
2022/07/19 10:45:01;;;;;;;5.43;2.40;;;;;;;35.17;21.00;96530.94;5036698;28;20040;-80
2022/07/19 10:47:26;;;;;;;;;;;;;;;34.36;21.61;96539.00;5059623;28;20028;-81
2022/07/19 10:50:00;;;;;;;6.65;2.65;;;;;;;34.52;21.61;96528.59;5078470;28;20149;-82
2022/07/19 10:52:37;;;;;;;6.68;2.50;;;;;;;34.70;21.15;96525.69;5066143;28;20478;-79
2022/07/19 10:55:18;;;;;;;4.70;2.47;;;;;;;34.72;21.00;96525.41;5070569;28;20035;-81
2022/07/19 10:57:59;;;;;;;5.15;2.88;;;;;;;35.33;20.81;96523.19;5080056;28;20036;-82
2022/07/19 11:00:29;;;;;;;4.40;2.55;;;;;;;34.45;21.29;96516.13;5048868;28;20040;-84
2022/07/19 11:03:25;;;;;;;4.18;2.47;;;;;;;34.47;21.59;96513.91;5057416;28;20079;-82
2022/07/19 11:05:54;;;;;;;6.20;2.35;;;;;;;36.17;19.79;96518.81;5066159;28;20021;-82
2022/07/19 11:08:40;;;;;;;10.30;3.15;;;;;;;34.77;21.15;96511.63;5063815;28;20032;-83
2022/07/19 11:11:11;;;;;;;6.43;2.45;;;;;;;34.65;21.70;96516.84;5052021;28;20608;-80
2022/07/19 11:13:39;;;;;;;5.88;2.53;;;;;;;35.78;20.73;96513.03;5064795;28;20039;-82
2022/07/19 11:16:05;;;;;;;6.03;2.30;;;;;;;35.61;21.65;96510.97;5046473;28;20035;-82
2022/07/19 11:18:34;;;;;;;5.82;2.90;;;;;;;35.72;20.86;96495.13;5056377;28;20119;-82
2022/07/19 11:21:03;;;;;;;5.95;2.78;;;;;;;36.27;20.37;96494.69;5046323;28;20029;-81
2022/07/19 11:23:34;;;;;;;4.55;2.38;;;;;;;35.10;20.04;96497.78;5067958;28;20021;-81
2022/07/19 11:26:09;;;;;;;6.13;2.70;;;;;;;35.22;20.01;96492.56;5085882;28;20067;-82
2022/07/19 11:28:36;;;;;;;6.00;2.40;;;;;;;36.07;20.21;96487.06;5045680;28;20537;-80
2022/07/19 11:31:24;;;;;;;5.18;2.22;;;;;;;34.10;21.21;96497.75;5043151;28;20020;-80
2022/07/19 11:33:56;;;;;;;4.90;2.15;;;;;;;34.81;20.66;96479.84;5041478;28;20028;-81
2022/07/19 11:36:22;;;;;;;;;;;;;;;35.09;20.53;96477.03;5061334;28;20032;-81
2022/07/19 11:38:54;;;;;;;7.13;2.47;;;;;;;35.14;21.22;96469.50;5055615;28;19912;-81